Terminal Aerodrome Forecast
Issued by NWS

Home | Current Version | Previous Version | Text Only | Print | Product List | Glossary Off
Versions: 1 2 3 4 5 6 7 8 9 10 11 12

000
FTUS43 KEAX 282333
TAFSTJ
TAF
KSTJ 282333Z 2900/2924 36009KT P6SM FEW250
     FM290900 VRB03KT 5SM BR BKN110
     FM291230 35004KT P6SM FEW040 BKN070=

USA.gov is the U.S. government's official web portal to all federal, state and local government web resources and services.